sensor_id;sensor_type;location;lat;lon;timestamp;P1;durP1;ratioP1;P2;durP2;ratioP2
5295;SDS011;2670;42.720;23.336;2023-02-28T00:00:26;27.97;;;15.40;;
5295;SDS011;2670;42.720;23.336;2023-02-28T00:02:54;29.80;;;15.03;;
5295;SDS011;2670;42.720;23.336;2023-02-28T00:05:21;30.10;;;16.17;;
5295;SDS011;2670;42.720;23.336;2023-02-28T00:07:50;28.37;;;16.00;;
5295;SDS011;2670;42.720;23.336;2023-02-28T00:10:18;27.30;;;16.80;;
5295;SDS011;2670;42.720;23.336;2023-02-28T00:12:46;29.90;;;15.67;;
5295;SDS011;2670;42.720;23.336;2023-02-28T00:15:12;29.60;;;15.73;;
5295;SDS011;2670;42.720;23.336;2023-02-28T00:17:39;30.37;;;15.40;;
5295;SDS011;2670;42.720;23.336;2023-02-28T00:20:08;22.23;;;13.93;;
5295;SDS011;2670;42.720;23.336;2023-02-28T00:22:37;26.90;;;15.57;;
5295;SDS011;2670;42.720;23.336;2023-02-28T00:25:05;33.00;;;16.47;;
5295;SDS011;2670;42.720;23.336;2023-02-28T00:27:33;30.90;;;16.17;;
5295;SDS011;2670;42.720;23.336;2023-02-28T00:30:00;36.13;;;16.80;;
5295;SDS011;2670;42.720;23.336;2023-02-28T00:32:26;27.53;;;15.40;;
5295;SDS011;2670;42.720;23.336;2023-02-28T00:34:53;30.03;;;16.30;;
5295;SDS011;2670;42.720;23.336;2023-02-28T00:37:21;29.97;;;15.27;;
5295;SDS011;2670;42.720;23.336;2023-02-28T00:39:48;36.23;;;16.63;;
5295;SDS011;2670;42.720;23.336;2023-02-28T00:42:15;36.93;;;18.00;;
5295;SDS011;2670;42.720;23.336;2023-02-28T00:44:41;35.37;;;17.77;;
5295;SDS011;2670;42.720;23.336;2023-02-28T00:47:08;29.33;;;14.30;;
5295;SDS011;2670;42.720;23.336;2023-02-28T00:49:35;25.60;;;13.07;;
5295;SDS011;2670;42.720;23.336;2023-02-28T00:52:02;26.37;;;12.33;;
5295;SDS011;2670;42.720;23.336;2023-02-28T00:54:30;23.33;;;13.00;;
5295;SDS011;2670;42.720;23.336;2023-02-28T00:56:57;31.33;;;15.87;;
5295;SDS011;2670;42.720;23.336;2023-02-28T00:59:23;31.93;;;14.80;;
5295;SDS011;2670;42.720;23.336;2023-02-28T01:01:50;30.60;;;15.00;;
5295;SDS011;2670;42.720;23.336;2023-02-28T01:04:17;25.93;;;12.77;;
5295;SDS011;2670;42.720;23.336;2023-02-28T01:06:44;23.03;;;12.67;;
5295;SDS011;2670;42.720;23.336;2023-02-28T01:09:11;29.10;;;13.17;;
5295;SDS011;2670;42.720;23.336;2023-02-28T01:11:39;21.90;;;12.03;;
5295;SDS011;2670;42.720;23.336;2023-02-28T01:14:09;29.00;;;15.27;;
5295;SDS011;2670;42.720;23.336;2023-02-28T01:16:38;34.57;;;14.37;;
5295;SDS011;2670;42.720;23.336;2023-02-28T01:19:05;24.03;;;12.97;;
5295;SDS011;2670;42.720;23.336;2023-02-28T01:21:31;26.97;;;14.60;;
5295;SDS011;2670;42.720;23.336;2023-02-28T01:23:59;36.00;;;14.63;;
5295;SDS011;2670;42.720;23.336;2023-02-28T01:26:26;22.67;;;12.33;;
5295;SDS011;2670;42.720;23.336;2023-02-28T01:28:54;21.77;;;11.83;;
5295;SDS011;2670;42.720;23.336;2023-02-28T01:31:22;24.03;;;12.53;;
5295;SDS011;2670;42.720;23.336;2023-02-28T01:33:49;19.60;;;11.87;;
5295;SDS011;2670;42.720;23.336;2023-02-28T01:36:16;24.70;;;13.20;;
5295;SDS011;2670;42.720;23.336;2023-02-28T01:38:44;25.33;;;13.93;;
5295;SDS011;2670;42.720;23.336;2023-02-28T01:41:14;25.57;;;13.70;;
5295;SDS011;2670;42.720;23.336;2023-02-28T01:43:54;25.03;;;13.43;;
5295;SDS011;2670;42.720;23.336;2023-02-28T01:46:24;26.63;;;11.90;;
5295;SDS011;2670;42.720;23.336;2023-02-28T01:48:51;33.03;;;14.20;;
5295;SDS011;2670;42.720;23.336;2023-02-28T01:51:24;32.80;;;15.60;;
5295;SDS011;2670;42.720;23.336;2023-02-28T01:53:57;28.37;;;14.70;;
5295;SDS011;2670;42.720;23.336;2023-02-28T01:56:28;24.60;;;13.43;;
5295;SDS011;2670;42.720;23.336;2023-02-28T01:59:00;28.17;;;14.97;;
5295;SDS011;2670;42.720;23.336;2023-02-28T02:01:27;26.50;;;13.63;;
5295;SDS011;2670;42.720;23.336;2023-02-28T02:03:55;31.43;;;13.20;;
5295;SDS011;2670;42.720;23.336;2023-02-28T02:06:25;28.03;;;14.63;;
5295;SDS011;2670;42.720;23.336;2023-02-28T02:08:55;25.17;;;13.57;;
5295;SDS011;2670;42.720;23.336;2023-02-28T02:11:22;24.33;;;12.57;;
5295;SDS011;2670;42.720;23.336;2023-02-28T02:13:57;22.30;;;11.67;;
5295;SDS011;2670;42.720;23.336;2023-02-28T02:16:41;25.10;;;11.70;;
5295;SDS011;2670;42.720;23.336;2023-02-28T02:22:30;23.87;;;12.43;;
5295;SDS011;2670;42.720;23.336;2023-02-28T02:25:26;31.67;;;12.23;;
5295;SDS011;2670;42.720;23.336;2023-02-28T02:28:02;27.27;;;14.13;;
5295;SDS011;2670;42.720;23.336;2023-02-28T02:31:06;18.33;;;10.70;;
5295;SDS011;2670;42.720;23.336;2023-02-28T02:34:09;27.40;;;13.97;;
5295;SDS011;2670;42.720;23.336;2023-02-28T02:36:59;26.13;;;12.27;;
5295;SDS011;2670;42.720;23.336;2023-02-28T02:39:36;24.57;;;12.30;;
5295;SDS011;2670;42.720;23.336;2023-02-28T02:42:12;23.00;;;11.80;;
5295;SDS011;2670;42.720;23.336;2023-02-28T02:44:45;24.10;;;13.50;;
5295;SDS011;2670;42.720;23.336;2023-02-28T02:47:15;23.70;;;11.23;;
5295;SDS011;2670;42.720;23.336;2023-02-28T02:49:47;26.33;;;12.00;;
5295;SDS011;2670;42.720;23.336;2023-02-28T02:52:17;21.67;;;11.40;;
5295;SDS011;2670;42.720;23.336;2023-02-28T02:54:48;24.97;;;12.77;;
5295;SDS011;2670;42.720;23.336;2023-02-28T02:57:19;25.73;;;12.10;;
5295;SDS011;2670;42.720;23.336;2023-02-28T02:59:49;30.07;;;15.03;;
5295;SDS011;2670;42.720;23.336;2023-02-28T03:02:19;30.70;;;13.83;;
5295;SDS011;2670;42.720;23.336;2023-02-28T03:04:51;33.17;;;15.50;;
5295;SDS011;2670;42.720;23.336;2023-02-28T03:07:19;32.03;;;15.17;;
5295;SDS011;2670;42.720;23.336;2023-02-28T03:09:50;27.23;;;13.50;;
5295;SDS011;2670;42.720;23.336;2023-02-28T03:12:18;31.83;;;14.10;;
5295;SDS011;2670;42.720;23.336;2023-02-28T03:14:50;31.23;;;13.27;;
5295;SDS011;2670;42.720;23.336;2023-02-28T03:17:25;34.33;;;15.47;;
5295;SDS011;2670;42.720;23.336;2023-02-28T03:20:04;32.00;;;16.13;;
5295;SDS011;2670;42.720;23.336;2023-02-28T03:22:39;28.83;;;15.37;;
5295;SDS011;2670;42.720;23.336;2023-02-28T03:25:16;25.87;;;13.10;;
5295;SDS011;2670;42.720;23.336;2023-02-28T03:27:48;25.50;;;13.37;;
5295;SDS011;2670;42.720;23.336;2023-02-28T03:30:22;28.43;;;13.97;;
5295;SDS011;2670;42.720;23.336;2023-02-28T03:32:54;27.00;;;13.83;;
5295;SDS011;2670;42.720;23.336;2023-02-28T03:35:26;32.03;;;14.57;;
5295;SDS011;2670;42.720;23.336;2023-02-28T03:37:59;26.70;;;13.57;;
5295;SDS011;2670;42.720;23.336;2023-02-28T03:40:30;26.27;;;14.40;;
5295;SDS011;2670;42.720;23.336;2023-02-28T03:42:59;28.60;;;15.03;;
5295;SDS011;2670;42.720;23.336;2023-02-28T03:45:30;38.80;;;17.80;;
5295;SDS011;2670;42.720;23.336;2023-02-28T03:48:02;37.03;;;17.10;;
5295;SDS011;2670;42.720;23.336;2023-02-28T03:50:37;45.07;;;20.63;;
5295;SDS011;2670;42.720;23.336;2023-02-28T03:53:08;51.00;;;22.87;;
5295;SDS011;2670;42.720;23.336;2023-02-28T03:55:38;41.60;;;19.47;;
5295;SDS011;2670;42.720;23.336;2023-02-28T03:58:10;48.20;;;23.13;;
5295;SDS011;2670;42.720;23.336;2023-02-28T04:00:43;55.93;;;22.67;;
5295;SDS011;2670;42.720;23.336;2023-02-28T04:03:15;46.87;;;20.90;;
5295;SDS011;2670;42.720;23.336;2023-02-28T04:05:49;45.20;;;20.27;;
5295;SDS011;2670;42.720;23.336;2023-02-28T04:08:18;47.77;;;22.43;;
5295;SDS011;2670;42.720;23.336;2023-02-28T04:10:45;50.30;;;23.90;;
5295;SDS011;2670;42.720;23.336;2023-02-28T04:13:18;51.10;;;23.97;;
5295;SDS011;2670;42.720;23.336;2023-02-28T04:15:44;51.70;;;24.90;;
5295;SDS011;2670;42.720;23.336;2023-02-28T04:18:11;58.47;;;29.60;;
5295;SDS011;2670;42.720;23.336;2023-02-28T04:20:38;88.33;;;46.93;;
5295;SDS011;2670;42.720;23.336;2023-02-28T04:23:06;59.70;;;32.57;;
5295;SDS011;2670;42.720;23.336;2023-02-28T04:25:32;56.60;;;28.27;;
5295;SDS011;2670;42.720;23.336;2023-02-28T04:27:59;52.83;;;26.50;;
5295;SDS011;2670;42.720;23.336;2023-02-28T04:30:26;45.53;;;22.30;;
5295;SDS011;2670;42.720;23.336;2023-02-28T04:32:54;44.97;;;20.17;;
5295;SDS011;2670;42.720;23.336;2023-02-28T04:35:21;39.67;;;17.77;;
5295;SDS011;2670;42.720;23.336;2023-02-28T04:37:48;38.67;;;18.50;;
5295;SDS011;2670;42.720;23.336;2023-02-28T04:40:16;47.63;;;21.87;;
5295;SDS011;2670;42.720;23.336;2023-02-28T04:42:43;46.43;;;19.03;;
5295;SDS011;2670;42.720;23.336;2023-02-28T04:45:09;42.20;;;16.97;;
5295;SDS011;2670;42.720;23.336;2023-02-28T04:47:36;62.33;;;19.97;;
5295;SDS011;2670;42.720;23.336;2023-02-28T04:50:03;76.87;;;21.10;;
5295;SDS011;2670;42.720;23.336;2023-02-28T04:52:30;134.33;;;50.90;;
5295;SDS011;2670;42.720;23.336;2023-02-28T04:54:57;278.13;;;126.40;;
5295;SDS011;2670;42.720;23.336;2023-02-28T04:57:25;206.40;;;77.23;;
5295;SDS011;2670;42.720;23.336;2023-02-28T04:59:52;83.80;;;30.27;;
5295;SDS011;2670;42.720;23.336;2023-02-28T05:02:18;164.13;;;46.20;;
5295;SDS011;2670;42.720;23.336;2023-02-28T05:04:46;109.77;;;37.90;;
5295;SDS011;2670;42.720;23.336;2023-02-28T05:07:13;78.40;;;22.13;;
5295;SDS011;2670;42.720;23.336;2023-02-28T05:09:39;97.87;;;21.80;;
5295;SDS011;2670;42.720;23.336;2023-02-28T05:12:06;79.00;;;22.50;;
5295;SDS011;2670;42.720;23.336;2023-02-28T05:14:36;59.73;;;21.33;;
5295;SDS011;2670;42.720;23.336;2023-02-28T05:17:02;57.20;;;23.13;;
5295;SDS011;2670;42.720;23.336;2023-02-28T05:19:30;131.30;;;52.93;;
5295;SDS011;2670;42.720;23.336;2023-02-28T05:21:57;107.50;;;41.20;;
5295;SDS011;2670;42.720;23.336;2023-02-28T05:24:24;95.27;;;36.67;;
5295;SDS011;2670;42.720;23.336;2023-02-28T05:26:51;79.93;;;31.00;;
5295;SDS011;2670;42.720;23.336;2023-02-28T05:29:19;83.03;;;24.20;;
5295;SDS011;2670;42.720;23.336;2023-02-28T05:31:47;97.63;;;25.97;;
5295;SDS011;2670;42.720;23.336;2023-02-28T05:34:14;69.77;;;22.83;;
5295;SDS011;2670;42.720;23.336;2023-02-28T05:36:41;71.57;;;24.20;;
5295;SDS011;2670;42.720;23.336;2023-02-28T05:39:08;58.33;;;20.03;;
5295;SDS011;2670;42.720;23.336;2023-02-28T05:41:38;71.47;;;23.20;;
5295;SDS011;2670;42.720;23.336;2023-02-28T05:44:07;88.30;;;23.90;;
5295;SDS011;2670;42.720;23.336;2023-02-28T05:46:34;66.63;;;22.60;;
5295;SDS011;2670;42.720;23.336;2023-02-28T05:49:03;61.80;;;24.50;;
5295;SDS011;2670;42.720;23.336;2023-02-28T05:51:30;62.40;;;25.27;;
5295;SDS011;2670;42.720;23.336;2023-02-28T05:54:00;97.47;;;26.33;;
5295;SDS011;2670;42.720;23.336;2023-02-28T05:56:27;127.30;;;57.37;;
5295;SDS011;2670;42.720;23.336;2023-02-28T05:58:54;117.70;;;48.97;;
5295;SDS011;2670;42.720;23.336;2023-02-28T06:01:26;95.60;;;43.50;;
5295;SDS011;2670;42.720;23.336;2023-02-28T06:03:58;74.73;;;24.37;;
5295;SDS011;2670;42.720;23.336;2023-02-28T06:06:27;61.47;;;22.80;;
5295;SDS011;2670;42.720;23.336;2023-02-28T06:08:54;61.87;;;23.60;;
5295;SDS011;2670;42.720;23.336;2023-02-28T06:11:21;89.00;;;26.13;;
5295;SDS011;2670;42.720;23.336;2023-02-28T06:13:53;114.10;;;35.77;;
5295;SDS011;2670;42.720;23.336;2023-02-28T06:16:20;116.20;;;45.70;;
5295;SDS011;2670;42.720;23.336;2023-02-28T06:18:47;97.17;;;39.70;;
5295;SDS011;2670;42.720;23.336;2023-02-28T06:21:13;92.67;;;37.27;;
5295;SDS011;2670;42.720;23.336;2023-02-28T06:23:41;101.30;;;45.37;;
5295;SDS011;2670;42.720;23.336;2023-02-28T06:26:09;73.90;;;30.23;;
5295;SDS011;2670;42.720;23.336;2023-02-28T06:28:35;89.60;;;29.50;;
5295;SDS011;2670;42.720;23.336;2023-02-28T06:31:05;83.50;;;32.77;;
5295;SDS011;2670;42.720;23.336;2023-02-28T06:33:33;85.70;;;33.63;;
5295;SDS011;2670;42.720;23.336;2023-02-28T06:36:00;68.40;;;26.97;;
5295;SDS011;2670;42.720;23.336;2023-02-28T06:38:27;81.37;;;26.27;;
5295;SDS011;2670;42.720;23.336;2023-02-28T06:40:55;69.30;;;28.40;;
5295;SDS011;2670;42.720;23.336;2023-02-28T06:43:23;65.30;;;24.83;;
5295;SDS011;2670;42.720;23.336;2023-02-28T06:45:53;67.43;;;31.67;;
5295;SDS011;2670;42.720;23.336;2023-02-28T06:48:21;62.70;;;30.67;;
5295;SDS011;2670;42.720;23.336;2023-02-28T06:50:47;66.90;;;30.83;;
5295;SDS011;2670;42.720;23.336;2023-02-28T06:53:14;63.93;;;30.73;;
5295;SDS011;2670;42.720;23.336;2023-02-28T06:55:41;68.77;;;32.10;;
5295;SDS011;2670;42.720;23.336;2023-02-28T06:58:09;57.60;;;28.70;;
5295;SDS011;2670;42.720;23.336;2023-02-28T07:00:43;54.47;;;24.43;;
5295;SDS011;2670;42.720;23.336;2023-02-28T07:03:11;58.00;;;26.67;;
5295;SDS011;2670;42.720;23.336;2023-02-28T07:05:40;91.23;;;37.60;;
5295;SDS011;2670;42.720;23.336;2023-02-28T07:08:07;70.27;;;34.23;;
5295;SDS011;2670;42.720;23.336;2023-02-28T07:10:33;58.43;;;27.60;;
5295;SDS011;2670;42.720;23.336;2023-02-28T07:13:03;61.77;;;29.53;;
5295;SDS011;2670;42.720;23.336;2023-02-28T07:15:31;70.17;;;30.10;;
5295;SDS011;2670;42.720;23.336;2023-02-28T07:17:58;59.43;;;29.43;;
5295;SDS011;2670;42.720;23.336;2023-02-28T07:20:25;52.53;;;27.50;;
5295;SDS011;2670;42.720;23.336;2023-02-28T07:22:52;41.80;;;20.40;;
5295;SDS011;2670;42.720;23.336;2023-02-28T07:25:21;47.23;;;19.60;;
5295;SDS011;2670;42.720;23.336;2023-02-28T07:27:48;46.10;;;22.60;;
5295;SDS011;2670;42.720;23.336;2023-02-28T07:30:15;38.33;;;19.77;;
5295;SDS011;2670;42.720;23.336;2023-02-28T07:32:44;41.07;;;20.97;;
5295;SDS011;2670;42.720;23.336;2023-02-28T07:35:10;40.53;;;20.10;;
5295;SDS011;2670;42.720;23.336;2023-02-28T07:37:37;35.10;;;19.50;;
5295;SDS011;2670;42.720;23.336;2023-02-28T07:40:04;38.17;;;18.97;;
5295;SDS011;2670;42.720;23.336;2023-02-28T07:42:35;54.87;;;24.80;;
5295;SDS011;2670;42.720;23.336;2023-02-28T07:45:09;45.93;;;23.67;;
5295;SDS011;2670;42.720;23.336;2023-02-28T07:47:37;52.20;;;22.43;;
5295;SDS011;2670;42.720;23.336;2023-02-28T07:50:06;46.40;;;23.53;;
5295;SDS011;2670;42.720;23.336;2023-02-28T07:52:35;45.10;;;25.20;;
5295;SDS011;2670;42.720;23.336;2023-02-28T07:55:02;59.03;;;32.80;;
5295;SDS011;2670;42.720;23.336;2023-02-28T07:57:30;50.53;;;25.63;;
5295;SDS011;2670;42.720;23.336;2023-02-28T07:59:57;52.87;;;25.00;;
5295;SDS011;2670;42.720;23.336;2023-02-28T08:02:23;48.20;;;25.23;;
5295;SDS011;2670;42.720;23.336;2023-02-28T08:04:50;51.30;;;25.53;;
5295;SDS011;2670;42.720;23.336;2023-02-28T08:07:18;51.60;;;26.10;;
5295;SDS011;2670;42.720;23.336;2023-02-28T08:09:45;48.90;;;25.60;;
5295;SDS011;2670;42.720;23.336;2023-02-28T08:12:12;51.03;;;26.53;;
5295;SDS011;2670;42.720;23.336;2023-02-28T08:14:39;52.60;;;26.67;;
5295;SDS011;2670;42.720;23.336;2023-02-28T08:17:06;54.47;;;27.00;;
5295;SDS011;2670;42.720;23.336;2023-02-28T08:19:33;53.63;;;27.87;;
5295;SDS011;2670;42.720;23.336;2023-02-28T08:21:59;53.27;;;25.70;;
5295;SDS011;2670;42.720;23.336;2023-02-28T08:24:28;50.87;;;28.10;;
5295;SDS011;2670;42.720;23.336;2023-02-28T08:26:55;56.03;;;26.37;;
5295;SDS011;2670;42.720;23.336;2023-02-28T08:29:22;57.57;;;23.10;;
5295;SDS011;2670;42.720;23.336;2023-02-28T08:31:49;45.83;;;22.50;;
5295;SDS011;2670;42.720;23.336;2023-02-28T08:34:16;52.10;;;23.83;;
5295;SDS011;2670;42.720;23.336;2023-02-28T08:36:43;53.60;;;24.70;;
5295;SDS011;2670;42.720;23.336;2023-02-28T08:39:10;42.30;;;23.27;;
5295;SDS011;2670;42.720;23.336;2023-02-28T08:41:39;48.90;;;24.37;;
5295;SDS011;2670;42.720;23.336;2023-02-28T08:44:06;56.53;;;25.60;;
5295;SDS011;2670;42.720;23.336;2023-02-28T08:46:33;47.33;;;25.13;;
5295;SDS011;2670;42.720;23.336;2023-02-28T08:48:59;57.77;;;27.20;;
5295;SDS011;2670;42.720;23.336;2023-02-28T08:51:27;57.37;;;24.80;;
5295;SDS011;2670;42.720;23.336;2023-02-28T08:53:55;58.27;;;24.07;;
5295;SDS011;2670;42.720;23.336;2023-02-28T08:56:24;50.97;;;26.07;;
5295;SDS011;2670;42.720;23.336;2023-02-28T08:58:54;55.03;;;25.77;;
5295;SDS011;2670;42.720;23.336;2023-02-28T09:01:21;50.17;;;22.60;;
5295;SDS011;2670;42.720;23.336;2023-02-28T09:03:50;53.00;;;25.53;;
5295;SDS011;2670;42.720;23.336;2023-02-28T09:06:18;50.63;;;22.30;;
5295;SDS011;2670;42.720;23.336;2023-02-28T09:08:45;47.50;;;22.37;;
5295;SDS011;2670;42.720;23.336;2023-02-28T09:11:14;47.77;;;23.33;;
5295;SDS011;2670;42.720;23.336;2023-02-28T09:13:41;31.03;;;15.60;;
5295;SDS011;2670;42.720;23.336;2023-02-28T09:16:10;36.50;;;15.53;;
5295;SDS011;2670;42.720;23.336;2023-02-28T09:18:38;33.10;;;15.23;;
5295;SDS011;2670;42.720;23.336;2023-02-28T09:21:05;33.97;;;14.87;;
5295;SDS011;2670;42.720;23.336;2023-02-28T09:23:33;41.23;;;18.83;;
5295;SDS011;2670;42.720;23.336;2023-02-28T09:26:00;32.63;;;15.50;;
5295;SDS011;2670;42.720;23.336;2023-02-28T09:28:27;44.53;;;15.97;;
5295;SDS011;2670;42.720;23.336;2023-02-28T09:30:54;37.77;;;16.00;;
5295;SDS011;2670;42.720;23.336;2023-02-28T09:33:23;38.67;;;17.00;;
5295;SDS011;2670;42.720;23.336;2023-02-28T09:35:50;31.20;;;16.47;;
5295;SDS011;2670;42.720;23.336;2023-02-28T09:38:23;39.60;;;16.00;;
5295;SDS011;2670;42.720;23.336;2023-02-28T09:40:50;27.87;;;14.77;;
5295;SDS011;2670;42.720;23.336;2023-02-28T09:43:21;27.13;;;14.80;;
5295;SDS011;2670;42.720;23.336;2023-02-28T09:45:51;34.20;;;14.93;;
5295;SDS011;2670;42.720;23.336;2023-02-28T09:48:25;31.07;;;13.43;;
5295;SDS011;2670;42.720;23.336;2023-02-28T09:50:56;27.53;;;13.50;;
5295;SDS011;2670;42.720;23.336;2023-02-28T09:53:29;30.63;;;14.07;;
5295;SDS011;2670;42.720;23.336;2023-02-28T09:56:00;26.23;;;13.27;;
5295;SDS011;2670;42.720;23.336;2023-02-28T09:58:31;30.27;;;13.67;;
5295;SDS011;2670;42.720;23.336;2023-02-28T10:01:04;28.13;;;13.83;;
5295;SDS011;2670;42.720;23.336;2023-02-28T10:03:39;27.90;;;12.90;;
5295;SDS011;2670;42.720;23.336;2023-02-28T10:06:11;30.80;;;12.57;;
5295;SDS011;2670;42.720;23.336;2023-02-28T10:08:45;21.93;;;12.10;;
5295;SDS011;2670;42.720;23.336;2023-02-28T10:11:18;20.37;;;11.20;;
5295;SDS011;2670;42.720;23.336;2023-02-28T10:13:52;27.07;;;12.53;;
5295;SDS011;2670;42.720;23.336;2023-02-28T10:16:27;31.80;;;12.30;;
5295;SDS011;2670;42.720;23.336;2023-02-28T10:19:02;28.83;;;12.43;;
5295;SDS011;2670;42.720;23.336;2023-02-28T10:21:32;28.10;;;13.00;;
5295;SDS011;2670;42.720;23.336;2023-02-28T10:24:04;29.00;;;13.70;;
5295;SDS011;2670;42.720;23.336;2023-02-28T10:26:38;23.60;;;12.27;;
5295;SDS011;2670;42.720;23.336;2023-02-28T10:29:07;31.53;;;12.63;;
5295;SDS011;2670;42.720;23.336;2023-02-28T10:31:35;27.13;;;11.43;;
5295;SDS011;2670;42.720;23.336;2023-02-28T10:34:04;29.60;;;12.00;;
5295;SDS011;2670;42.720;23.336;2023-02-28T10:36:31;29.10;;;11.93;;
5295;SDS011;2670;42.720;23.336;2023-02-28T10:38:58;20.50;;;11.13;;
5295;SDS011;2670;42.720;23.336;2023-02-28T10:41:29;20.40;;;11.70;;
5295;SDS011;2670;42.720;23.336;2023-02-28T10:44:12;30.10;;;12.10;;
5295;SDS011;2670;42.720;23.336;2023-02-28T10:46:40;29.57;;;13.23;;
5295;SDS011;2670;42.720;23.336;2023-02-28T10:49:13;21.30;;;11.53;;
5295;SDS011;2670;42.720;23.336;2023-02-28T10:51:43;22.30;;;11.07;;
5295;SDS011;2670;42.720;23.336;2023-02-28T10:54:15;21.07;;;11.00;;
5295;SDS011;2670;42.720;23.336;2023-02-28T10:56:42;33.27;;;11.50;;
5295;SDS011;2670;42.720;23.336;2023-02-28T10:59:23;27.37;;;11.63;;
5295;SDS011;2670;42.720;23.336;2023-02-28T11:01:54;20.87;;;12.10;;
5295;SDS011;2670;42.720;23.336;2023-02-28T11:04:33;29.77;;;14.07;;
5295;SDS011;2670;42.720;23.336;2023-02-28T11:07:04;31.73;;;13.47;;
5295;SDS011;2670;42.720;23.336;2023-02-28T11:09:33;31.40;;;14.17;;
5295;SDS011;2670;42.720;23.336;2023-02-28T11:12:02;37.90;;;14.30;;
5295;SDS011;2670;42.720;23.336;2023-02-28T11:14:31;38.00;;;14.83;;
5295;SDS011;2670;42.720;23.336;2023-02-28T11:17:03;33.23;;;15.80;;
5295;SDS011;2670;42.720;23.336;2023-02-28T11:19:44;26.93;;;12.27;;
5295;SDS011;2670;42.720;23.336;2023-02-28T11:22:16;29.47;;;13.03;;
5295;SDS011;2670;42.720;23.336;2023-02-28T11:24:45;26.00;;;12.80;;
5295;SDS011;2670;42.720;23.336;2023-02-28T11:30:30;27.63;;;12.07;;
5295;SDS011;2670;42.720;23.336;2023-02-28T11:33:01;22.80;;;11.37;;
5295;SDS011;2670;42.720;23.336;2023-02-28T11:35:53;22.00;;;11.80;;
5295;SDS011;2670;42.720;23.336;2023-02-28T11:38:25;28.63;;;12.20;;
5295;SDS011;2670;42.720;23.336;2023-02-28T11:40:57;19.83;;;10.33;;
5295;SDS011;2670;42.720;23.336;2023-02-28T11:43:38;29.10;;;12.53;;
5295;SDS011;2670;42.720;23.336;2023-02-28T11:46:21;30.43;;;12.10;;
5295;SDS011;2670;42.720;23.336;2023-02-28T11:48:58;34.73;;;12.90;;
5295;SDS011;2670;42.720;23.336;2023-02-28T11:51:41;31.97;;;14.50;;
5295;SDS011;2670;42.720;23.336;2023-02-28T11:57:25;44.97;;;15.30;;
5295;SDS011;2670;42.720;23.336;2023-02-28T12:00:03;30.60;;;11.33;;
5295;SDS011;2670;42.720;23.336;2023-02-28T12:02:44;24.57;;;11.60;;
5295;SDS011;2670;42.720;23.336;2023-02-28T12:05:27;30.13;;;12.80;;
5295;SDS011;2670;42.720;23.336;2023-02-28T12:10:54;25.90;;;9.90;;
5295;SDS011;2670;42.720;23.336;2023-02-28T12:13:32;25.43;;;10.07;;
5295;SDS011;2670;42.720;23.336;2023-02-28T12:19:06;23.90;;;9.83;;
5295;SDS011;2670;42.720;23.336;2023-02-28T12:21:47;21.50;;;9.67;;
5295;SDS011;2670;42.720;23.336;2023-02-28T12:24:35;19.10;;;8.73;;
5295;SDS011;2670;42.720;23.336;2023-02-28T12:27:12;31.03;;;9.90;;
5295;SDS011;2670;42.720;23.336;2023-02-28T12:29:44;19.20;;;10.03;;
5295;SDS011;2670;42.720;23.336;2023-02-28T12:32:16;24.87;;;9.60;;
5295;SDS011;2670;42.720;23.336;2023-02-28T12:34:47;28.10;;;10.93;;
5295;SDS011;2670;42.720;23.336;2023-02-28T12:37:17;22.10;;;11.00;;
5295;SDS011;2670;42.720;23.336;2023-02-28T12:39:54;29.67;;;9.20;;
5295;SDS011;2670;42.720;23.336;2023-02-28T12:42:27;28.73;;;9.97;;
5295;SDS011;2670;42.720;23.336;2023-02-28T12:44:57;23.87;;;8.90;;
5295;SDS011;2670;42.720;23.336;2023-02-28T12:47:27;26.60;;;8.60;;
5295;SDS011;2670;42.720;23.336;2023-02-28T12:49:55;16.73;;;9.73;;
5295;SDS011;2670;42.720;23.336;2023-02-28T12:52:27;18.33;;;9.10;;
5295;SDS011;2670;42.720;23.336;2023-02-28T12:55:04;23.33;;;10.10;;
5295;SDS011;2670;42.720;23.336;2023-02-28T12:57:39;33.00;;;10.00;;
5295;SDS011;2670;42.720;23.336;2023-02-28T13:00:12;21.47;;;10.03;;
5295;SDS011;2670;42.720;23.336;2023-02-28T13:02:53;19.07;;;10.00;;
5295;SDS011;2670;42.720;23.336;2023-02-28T13:08:47;34.77;;;11.10;;
5295;SDS011;2670;42.720;23.336;2023-02-28T13:11:39;25.00;;;11.27;;
5295;SDS011;2670;42.720;23.336;2023-02-28T13:14:16;23.93;;;10.00;;
5295;SDS011;2670;42.720;23.336;2023-02-28T13:16:54;28.27;;;11.97;;
5295;SDS011;2670;42.720;23.336;2023-02-28T13:19:23;28.60;;;12.80;;
5295;SDS011;2670;42.720;23.336;2023-02-28T13:21:51;30.87;;;12.73;;
5295;SDS011;2670;42.720;23.336;2023-02-28T13:24:39;27.70;;;11.30;;
5295;SDS011;2670;42.720;23.336;2023-02-28T13:27:24;23.70;;;10.77;;
5295;SDS011;2670;42.720;23.336;2023-02-28T13:30:00;24.90;;;11.50;;
5295;SDS011;2670;42.720;23.336;2023-02-28T13:32:29;28.43;;;10.37;;
5295;SDS011;2670;42.720;23.336;2023-02-28T13:35:14;29.33;;;12.13;;
5295;SDS011;2670;42.720;23.336;2023-02-28T13:44:09;28.00;;;12.40;;
5295;SDS011;2670;42.720;23.336;2023-02-28T13:49:37;33.50;;;11.50;;
5295;SDS011;2670;42.720;23.336;2023-02-28T13:52:07;38.97;;;12.40;;
5295;SDS011;2670;42.720;23.336;2023-02-28T13:54:44;30.60;;;15.50;;
5295;SDS011;2670;42.720;23.336;2023-02-28T13:57:26;27.77;;;12.73;;
5295;SDS011;2670;42.720;23.336;2023-02-28T14:00:13;24.00;;;12.57;;
5295;SDS011;2670;42.720;23.336;2023-02-28T14:03:00;32.93;;;11.27;;
5295;SDS011;2670;42.720;23.336;2023-02-28T14:05:36;33.77;;;12.00;;
5295;SDS011;2670;42.720;23.336;2023-02-28T14:08:04;25.53;;;9.87;;
5295;SDS011;2670;42.720;23.336;2023-02-28T14:10:35;24.00;;;9.43;;
5295;SDS011;2670;42.720;23.336;2023-02-28T14:13:11;30.47;;;10.23;;
5295;SDS011;2670;42.720;23.336;2023-02-28T14:15:45;21.27;;;9.80;;
5295;SDS011;2670;42.720;23.336;2023-02-28T14:18:17;20.47;;;11.00;;
5295;SDS011;2670;42.720;23.336;2023-02-28T14:20:48;18.47;;;9.67;;
5295;SDS011;2670;42.720;23.336;2023-02-28T14:23:26;22.93;;;9.17;;
5295;SDS011;2670;42.720;23.336;2023-02-28T14:26:07;26.23;;;10.27;;
5295;SDS011;2670;42.720;23.336;2023-02-28T14:28:48;18.63;;;10.30;;
5295;SDS011;2670;42.720;23.336;2023-02-28T14:31:29;33.77;;;11.20;;
5295;SDS011;2670;42.720;23.336;2023-02-28T14:34:05;26.67;;;11.67;;
5295;SDS011;2670;42.720;23.336;2023-02-28T14:36:46;20.13;;;10.30;;
5295;SDS011;2670;42.720;23.336;2023-02-28T14:39:15;28.30;;;11.30;;
5295;SDS011;2670;42.720;23.336;2023-02-28T14:41:45;26.47;;;10.40;;
5295;SDS011;2670;42.720;23.336;2023-02-28T14:44:13;23.03;;;11.07;;
5295;SDS011;2670;42.720;23.336;2023-02-28T14:46:44;39.50;;;11.47;;
5295;SDS011;2670;42.720;23.336;2023-02-28T14:49:13;24.30;;;11.23;;
5295;SDS011;2670;42.720;23.336;2023-02-28T14:51:44;30.60;;;12.50;;
5295;SDS011;2670;42.720;23.336;2023-02-28T14:54:13;25.40;;;11.23;;
5295;SDS011;2670;42.720;23.336;2023-02-28T14:56:41;20.50;;;9.43;;
5295;SDS011;2670;42.720;23.336;2023-02-28T14:59:23;21.77;;;10.63;;
5295;SDS011;2670;42.720;23.336;2023-02-28T15:01:53;19.90;;;9.47;;
5295;SDS011;2670;42.720;23.336;2023-02-28T15:04:41;17.03;;;8.80;;
5295;SDS011;2670;42.720;23.336;2023-02-28T15:07:08;22.67;;;9.80;;
5295;SDS011;2670;42.720;23.336;2023-02-28T15:09:35;14.70;;;8.80;;
5295;SDS011;2670;42.720;23.336;2023-02-28T15:12:02;21.57;;;10.30;;
5295;SDS011;2670;42.720;23.336;2023-02-28T15:14:29;35.60;;;10.57;;
5295;SDS011;2670;42.720;23.336;2023-02-28T15:16:59;18.60;;;9.43;;
5295;SDS011;2670;42.720;23.336;2023-02-28T15:19:32;20.47;;;10.13;;
5295;SDS011;2670;42.720;23.336;2023-02-28T15:22:01;19.23;;;9.33;;
5295;SDS011;2670;42.720;23.336;2023-02-28T15:24:35;23.83;;;9.60;;